sensor_id;sensor_type;location;lat;lon;timestamp;temperature;humidity
21035;DHT22;10676;50.848;3.272;2023-07-02T00:01:19;18.00;99.90
21035;DHT22;10676;50.848;3.272;2023-07-02T00:03:45;18.00;99.90
21035;DHT22;10676;50.848;3.272;2023-07-02T00:06:10;18.00;99.90
21035;DHT22;10676;50.848;3.272;2023-07-02T00:08:36;18.00;99.90
21035;DHT22;10676;50.848;3.272;2023-07-02T00:11:01;18.00;99.90
21035;DHT22;10676;50.848;3.272;2023-07-02T00:13:27;18.00;99.90
21035;DHT22;10676;50.848;3.272;2023-07-02T00:15:53;18.10;99.90
21035;DHT22;10676;50.848;3.272;2023-07-02T00:18:18;18.10;99.90
21035;DHT22;10676;50.848;3.272;2023-07-02T00:20:44;18.00;99.90
21035;DHT22;10676;50.848;3.272;2023-07-02T00:23:09;18.00;99.90
21035;DHT22;10676;50.848;3.272;2023-07-02T00:25:36;18.00;99.90
21035;DHT22;10676;50.848;3.272;2023-07-02T00:28:02;18.00;99.90
21035;DHT22;10676;50.848;3.272;2023-07-02T00:30:28;18.00;99.90
21035;DHT22;10676;50.848;3.272;2023-07-02T00:32:53;18.00;99.90
21035;DHT22;10676;50.848;3.272;2023-07-02T00:35:19;18.00;99.90
21035;DHT22;10676;50.848;3.272;2023-07-02T00:37:45;18.00;99.90
21035;DHT22;10676;50.848;3.272;2023-07-02T00:40:11;18.00;99.90
21035;DHT22;10676;50.848;3.272;2023-07-02T00:42:36;18.00;99.90
21035;DHT22;10676;50.848;3.272;2023-07-02T00:45:02;17.90;99.90
21035;DHT22;10676;50.848;3.272;2023-07-02T00:47:32;17.90;99.90
21035;DHT22;10676;50.848;3.272;2023-07-02T00:49:59;17.80;99.90
21035;DHT22;10676;50.848;3.272;2023-07-02T00:52:25;17.80;99.90
21035;DHT22;10676;50.848;3.272;2023-07-02T00:54:51;17.80;99.90
21035;DHT22;10676;50.848;3.272;2023-07-02T00:57:17;17.70;99.90
21035;DHT22;10676;50.848;3.272;2023-07-02T00:59:43;17.70;99.90
21035;DHT22;10676;50.848;3.272;2023-07-02T01:02:09;17.60;99.90
21035;DHT22;10676;50.848;3.272;2023-07-02T01:04:36;17.50;99.90
21035;DHT22;10676;50.848;3.272;2023-07-02T01:07:02;17.50;99.90
21035;DHT22;10676;50.848;3.272;2023-07-02T01:09:34;17.40;99.90
21035;DHT22;10676;50.848;3.272;2023-07-02T01:12:04;17.40;99.90
21035;DHT22;10676;50.848;3.272;2023-07-02T01:14:42;17.30;99.90
21035;DHT22;10676;50.848;3.272;2023-07-02T01:17:09;17.30;99.90
21035;DHT22;10676;50.848;3.272;2023-07-02T01:20:11;17.30;99.90
21035;DHT22;10676;50.848;3.272;2023-07-02T01:22:37;17.20;99.90
21035;DHT22;10676;50.848;3.272;2023-07-02T01:25:04;17.20;99.90
21035;DHT22;10676;50.848;3.272;2023-07-02T01:27:31;17.20;99.90
21035;DHT22;10676;50.848;3.272;2023-07-02T01:29:57;17.10;99.90
21035;DHT22;10676;50.848;3.272;2023-07-02T01:32:23;17.10;99.90
21035;DHT22;10676;50.848;3.272;2023-07-02T01:34:49;17.10;99.90
21035;DHT22;10676;50.848;3.272;2023-07-02T01:37:15;17.00;99.90
21035;DHT22;10676;50.848;3.272;2023-07-02T01:39:42;17.00;99.90
21035;DHT22;10676;50.848;3.272;2023-07-02T01:44:34;17.00;99.90
21035;DHT22;10676;50.848;3.272;2023-07-02T01:46:59;16.90;99.90
21035;DHT22;10676;50.848;3.272;2023-07-02T01:49:25;16.90;99.90
21035;DHT22;10676;50.848;3.272;2023-07-02T01:51:52;16.90;99.90
21035;DHT22;10676;50.848;3.272;2023-07-02T01:54:19;16.90;99.90
21035;DHT22;10676;50.848;3.272;2023-07-02T01:56:45;16.90;99.90
21035;DHT22;10676;50.848;3.272;2023-07-02T01:59:10;16.90;99.90
21035;DHT22;10676;50.848;3.272;2023-07-02T02:01:37;16.90;99.90
21035;DHT22;10676;50.848;3.272;2023-07-02T02:04:10;16.80;99.90
21035;DHT22;10676;50.848;3.272;2023-07-02T02:06:36;16.80;99.90
21035;DHT22;10676;50.848;3.272;2023-07-02T02:09:02;16.80;99.90
21035;DHT22;10676;50.848;3.272;2023-07-02T02:11:33;16.80;99.90
21035;DHT22;10676;50.848;3.272;2023-07-02T02:13:59;16.90;99.90
21035;DHT22;10676;50.848;3.272;2023-07-02T02:16:28;16.90;99.90
21035;DHT22;10676;50.848;3.272;2023-07-02T02:18:54;16.90;99.90
21035;DHT22;10676;50.848;3.272;2023-07-02T02:21:20;16.90;99.90
21035;DHT22;10676;50.848;3.272;2023-07-02T02:23:46;16.90;99.90
21035;DHT22;10676;50.848;3.272;2023-07-02T02:26:12;16.90;99.90
21035;DHT22;10676;50.848;3.272;2023-07-02T02:28:38;16.90;99.90
21035;DHT22;10676;50.848;3.272;2023-07-02T02:31:03;16.90;99.90
21035;DHT22;10676;50.848;3.272;2023-07-02T02:33:29;16.90;99.90
21035;DHT22;10676;50.848;3.272;2023-07-02T02:35:55;16.90;99.90
21035;DHT22;10676;50.848;3.272;2023-07-02T02:38:21;16.90;99.90
21035;DHT22;10676;50.848;3.272;2023-07-02T02:40:46;16.90;99.90
21035;DHT22;10676;50.848;3.272;2023-07-02T02:43:12;16.90;99.90
21035;DHT22;10676;50.848;3.272;2023-07-02T02:45:38;16.90;99.90
21035;DHT22;10676;50.848;3.272;2023-07-02T02:48:04;16.90;99.90
21035;DHT22;10676;50.848;3.272;2023-07-02T02:50:30;16.90;99.90
21035;DHT22;10676;50.848;3.272;2023-07-02T02:52:56;16.90;99.90
21035;DHT22;10676;50.848;3.272;2023-07-02T02:55:21;16.90;99.90
21035;DHT22;10676;50.848;3.272;2023-07-02T02:57:47;16.90;99.90
21035;DHT22;10676;50.848;3.272;2023-07-02T03:00:13;16.90;99.90
21035;DHT22;10676;50.848;3.272;2023-07-02T03:02:39;16.80;99.90
21035;DHT22;10676;50.848;3.272;2023-07-02T03:05:05;16.80;99.90
21035;DHT22;10676;50.848;3.272;2023-07-02T03:07:32;16.80;99.90
21035;DHT22;10676;50.848;3.272;2023-07-02T03:09:58;16.80;99.90
21035;DHT22;10676;50.848;3.272;2023-07-02T03:12:25;16.80;99.90
21035;DHT22;10676;50.848;3.272;2023-07-02T03:14:51;16.90;99.90
21035;DHT22;10676;50.848;3.272;2023-07-02T03:17:20;16.90;99.90
21035;DHT22;10676;50.848;3.272;2023-07-02T03:19:46;16.80;99.90
21035;DHT22;10676;50.848;3.272;2023-07-02T03:22:12;16.80;99.90
21035;DHT22;10676;50.848;3.272;2023-07-02T03:24:38;16.80;99.90
21035;DHT22;10676;50.848;3.272;2023-07-02T03:27:04;16.90;99.90
21035;DHT22;10676;50.848;3.272;2023-07-02T03:29:29;16.80;99.90
21035;DHT22;10676;50.848;3.272;2023-07-02T03:31:55;16.80;99.90
21035;DHT22;10676;50.848;3.272;2023-07-02T03:34:21;16.80;99.90
21035;DHT22;10676;50.848;3.272;2023-07-02T03:36:49;16.90;99.90
21035;DHT22;10676;50.848;3.272;2023-07-02T03:39:15;16.90;99.90
21035;DHT22;10676;50.848;3.272;2023-07-02T03:41:41;16.90;99.90
21035;DHT22;10676;50.848;3.272;2023-07-02T03:44:07;17.00;99.90
21035;DHT22;10676;50.848;3.272;2023-07-02T03:46:33;17.00;99.90
21035;DHT22;10676;50.848;3.272;2023-07-02T03:48:58;17.00;99.90
21035;DHT22;10676;50.848;3.272;2023-07-02T03:51:24;17.00;99.90
21035;DHT22;10676;50.848;3.272;2023-07-02T03:53:50;17.00;99.90
21035;DHT22;10676;50.848;3.272;2023-07-02T03:56:15;17.00;99.90
21035;DHT22;10676;50.848;3.272;2023-07-02T03:58:41;17.00;99.90
21035;DHT22;10676;50.848;3.272;2023-07-02T04:01:07;17.00;99.90
21035;DHT22;10676;50.848;3.272;2023-07-02T04:03:32;17.00;99.90
21035;DHT22;10676;50.848;3.272;2023-07-02T04:05:58;17.00;99.90
21035;DHT22;10676;50.848;3.272;2023-07-02T04:08:24;17.00;99.90
21035;DHT22;10676;50.848;3.272;2023-07-02T04:10:54;17.00;99.90
21035;DHT22;10676;50.848;3.272;2023-07-02T04:13:20;17.10;99.90
21035;DHT22;10676;50.848;3.272;2023-07-02T04:15:46;17.10;99.90
21035;DHT22;10676;50.848;3.272;2023-07-02T04:18:12;17.10;99.90
21035;DHT22;10676;50.848;3.272;2023-07-02T04:20:38;17.10;99.90
21035;DHT22;10676;50.848;3.272;2023-07-02T04:23:05;17.10;99.90
21035;DHT22;10676;50.848;3.272;2023-07-02T04:25:31;17.10;99.90
21035;DHT22;10676;50.848;3.272;2023-07-02T04:27:56;17.20;99.90
21035;DHT22;10676;50.848;3.272;2023-07-02T04:30:24;17.20;99.90
21035;DHT22;10676;50.848;3.272;2023-07-02T04:32:51;17.20;99.90
21035;DHT22;10676;50.848;3.272;2023-07-02T04:35:17;17.30;99.90
21035;DHT22;10676;50.848;3.272;2023-07-02T04:37:43;17.30;99.90
21035;DHT22;10676;50.848;3.272;2023-07-02T04:40:09;17.30;99.90
21035;DHT22;10676;50.848;3.272;2023-07-02T04:42:39;17.30;99.90
21035;DHT22;10676;50.848;3.272;2023-07-02T04:45:07;17.40;99.90
21035;DHT22;10676;50.848;3.272;2023-07-02T04:47:34;17.40;99.90
21035;DHT22;10676;50.848;3.272;2023-07-02T04:50:00;17.40;99.90
21035;DHT22;10676;50.848;3.272;2023-07-02T04:52:26;17.50;99.90
21035;DHT22;10676;50.848;3.272;2023-07-02T04:54:52;17.50;99.90
21035;DHT22;10676;50.848;3.272;2023-07-02T04:57:18;17.50;99.90
21035;DHT22;10676;50.848;3.272;2023-07-02T04:59:44;17.60;99.90
21035;DHT22;10676;50.848;3.272;2023-07-02T05:02:10;17.70;99.90
21035;DHT22;10676;50.848;3.272;2023-07-02T05:04:36;17.70;99.90
21035;DHT22;10676;50.848;3.272;2023-07-02T05:07:03;17.80;99.90
21035;DHT22;10676;50.848;3.272;2023-07-02T05:09:30;17.80;99.90
21035;DHT22;10676;50.848;3.272;2023-07-02T05:11:55;17.90;99.90
21035;DHT22;10676;50.848;3.272;2023-07-02T05:14:22;18.00;99.90
21035;DHT22;10676;50.848;3.272;2023-07-02T05:16:48;18.00;99.90
21035;DHT22;10676;50.848;3.272;2023-07-02T05:19:14;18.10;99.90
21035;DHT22;10676;50.848;3.272;2023-07-02T05:21:40;18.20;99.90
21035;DHT22;10676;50.848;3.272;2023-07-02T05:24:14;18.20;99.90
21035;DHT22;10676;50.848;3.272;2023-07-02T05:26:40;18.30;99.90
21035;DHT22;10676;50.848;3.272;2023-07-02T05:29:06;18.40;99.90
21035;DHT22;10676;50.848;3.272;2023-07-02T05:31:31;18.50;99.90
21035;DHT22;10676;50.848;3.272;2023-07-02T05:33:59;18.60;99.90
21035;DHT22;10676;50.848;3.272;2023-07-02T05:36:25;18.70;99.90
21035;DHT22;10676;50.848;3.272;2023-07-02T05:38:54;18.70;99.90
21035;DHT22;10676;50.848;3.272;2023-07-02T05:41:20;18.80;99.90
21035;DHT22;10676;50.848;3.272;2023-07-02T05:43:46;18.90;99.90
21035;DHT22;10676;50.848;3.272;2023-07-02T05:46:12;19.00;99.90
21035;DHT22;10676;50.848;3.272;2023-07-02T05:48:47;19.00;99.90
21035;DHT22;10676;50.848;3.272;2023-07-02T05:51:13;19.10;99.90
21035;DHT22;10676;50.848;3.272;2023-07-02T05:53:38;19.30;99.90
21035;DHT22;10676;50.848;3.272;2023-07-02T05:56:06;19.50;99.90
21035;DHT22;10676;50.848;3.272;2023-07-02T05:58:32;19.50;99.90
21035;DHT22;10676;50.848;3.272;2023-07-02T06:01:00;19.70;99.90
21035;DHT22;10676;50.848;3.272;2023-07-02T06:03:26;19.80;99.90
21035;DHT22;10676;50.848;3.272;2023-07-02T06:05:52;19.90;99.90
21035;DHT22;10676;50.848;3.272;2023-07-02T06:08:18;20.10;99.90
21035;DHT22;10676;50.848;3.272;2023-07-02T06:10:46;20.20;99.90
21035;DHT22;10676;50.848;3.272;2023-07-02T06:13:14;20.30;99.90
21035;DHT22;10676;50.848;3.272;2023-07-02T06:15:40;20.30;99.90
21035;DHT22;10676;50.848;3.272;2023-07-02T06:18:06;20.40;99.90
21035;DHT22;10676;50.848;3.272;2023-07-02T06:20:31;20.60;99.90
21035;DHT22;10676;50.848;3.272;2023-07-02T06:22:57;20.80;99.90
21035;DHT22;10676;50.848;3.272;2023-07-02T06:25:23;20.90;99.90
21035;DHT22;10676;50.848;3.272;2023-07-02T06:27:48;21.00;99.90
21035;DHT22;10676;50.848;3.272;2023-07-02T06:30:14;21.20;99.90
21035;DHT22;10676;50.848;3.272;2023-07-02T06:32:40;21.30;99.90
21035;DHT22;10676;50.848;3.272;2023-07-02T06:35:06;21.50;99.90
21035;DHT22;10676;50.848;3.272;2023-07-02T06:37:32;21.60;99.90
21035;DHT22;10676;50.848;3.272;2023-07-02T06:39:58;21.70;99.90
21035;DHT22;10676;50.848;3.272;2023-07-02T06:42:26;21.90;99.90
21035;DHT22;10676;50.848;3.272;2023-07-02T06:44:51;22.10;99.90
21035;DHT22;10676;50.848;3.272;2023-07-02T06:47:17;22.10;99.90
21035;DHT22;10676;50.848;3.272;2023-07-02T06:49:44;22.10;99.90
21035;DHT22;10676;50.848;3.272;2023-07-02T06:52:09;22.10;99.90
21035;DHT22;10676;50.848;3.272;2023-07-02T06:54:35;22.10;99.90
21035;DHT22;10676;50.848;3.272;2023-07-02T06:57:01;22.10;99.90
21035;DHT22;10676;50.848;3.272;2023-07-02T06:59:27;22.20;99.90
21035;DHT22;10676;50.848;3.272;2023-07-02T07:01:53;22.20;99.90
21035;DHT22;10676;50.848;3.272;2023-07-02T07:04:18;22.30;99.90
21035;DHT22;10676;50.848;3.272;2023-07-02T07:06:44;22.40;99.90
21035;DHT22;10676;50.848;3.272;2023-07-02T07:09:20;22.40;99.90
21035;DHT22;10676;50.848;3.272;2023-07-02T07:11:46;22.50;99.90
21035;DHT22;10676;50.848;3.272;2023-07-02T07:14:12;22.60;99.90
21035;DHT22;10676;50.848;3.272;2023-07-02T07:16:37;22.80;99.90
21035;DHT22;10676;50.848;3.272;2023-07-02T07:19:04;23.10;99.90
21035;DHT22;10676;50.848;3.272;2023-07-02T07:21:29;23.40;99.90
21035;DHT22;10676;50.848;3.272;2023-07-02T07:23:55;23.50;99.90
21035;DHT22;10676;50.848;3.272;2023-07-02T07:26:22;23.70;99.90
21035;DHT22;10676;50.848;3.272;2023-07-02T07:28:48;23.90;99.90
21035;DHT22;10676;50.848;3.272;2023-07-02T07:31:19;23.90;99.90
21035;DHT22;10676;50.848;3.272;2023-07-02T07:33:45;24.00;99.90
21035;DHT22;10676;50.848;3.272;2023-07-02T07:36:14;24.10;99.90
21035;DHT22;10676;50.848;3.272;2023-07-02T07:38:39;24.20;99.90
21035;DHT22;10676;50.848;3.272;2023-07-02T07:41:05;24.40;99.90
21035;DHT22;10676;50.848;3.272;2023-07-02T07:43:31;24.60;99.90
21035;DHT22;10676;50.848;3.272;2023-07-02T07:45:57;24.80;99.90
21035;DHT22;10676;50.848;3.272;2023-07-02T07:48:23;25.00;99.90
21035;DHT22;10676;50.848;3.272;2023-07-02T07:50:49;25.30;99.90
21035;DHT22;10676;50.848;3.272;2023-07-02T07:53:16;25.80;99.90
21035;DHT22;10676;50.848;3.272;2023-07-02T07:55:41;26.20;99.90
21035;DHT22;10676;50.848;3.272;2023-07-02T07:58:07;26.40;99.90
21035;DHT22;10676;50.848;3.272;2023-07-02T08:00:35;26.60;99.90
21035;DHT22;10676;50.848;3.272;2023-07-02T08:03:01;26.90;99.90
21035;DHT22;10676;50.848;3.272;2023-07-02T08:05:29;27.20;99.80
21035;DHT22;10676;50.848;3.272;2023-07-02T08:07:55;27.50;99.30
21035;DHT22;10676;50.848;3.272;2023-07-02T08:10:21;27.60;97.50
21035;DHT22;10676;50.848;3.272;2023-07-02T08:12:46;27.50;96.10
21035;DHT22;10676;50.848;3.272;2023-07-02T08:15:13;27.30;95.80
21035;DHT22;10676;50.848;3.272;2023-07-02T08:17:39;27.10;96.20
21035;DHT22;10676;50.848;3.272;2023-07-02T08:20:05;27.10;96.60
21035;DHT22;10676;50.848;3.272;2023-07-02T08:22:38;27.00;95.90
21035;DHT22;10676;50.848;3.272;2023-07-02T08:25:04;27.40;94.60
21035;DHT22;10676;50.848;3.272;2023-07-02T08:27:30;27.80;93.50
21035;DHT22;10676;50.848;3.272;2023-07-02T08:29:56;28.20;92.10
21035;DHT22;10676;50.848;3.272;2023-07-02T08:32:21;28.30;92.10
21035;DHT22;10676;50.848;3.272;2023-07-02T08:34:47;28.10;90.50
21035;DHT22;10676;50.848;3.272;2023-07-02T08:37:13;27.70;90.40
21035;DHT22;10676;50.848;3.272;2023-07-02T08:39:39;27.30;90.30
21035;DHT22;10676;50.848;3.272;2023-07-02T08:42:05;27.00;90.70
21035;DHT22;10676;50.848;3.272;2023-07-02T08:44:31;26.60;90.90
21035;DHT22;10676;50.848;3.272;2023-07-02T08:46:58;26.30;90.30
21035;DHT22;10676;50.848;3.272;2023-07-02T08:49:24;26.00;90.60
21035;DHT22;10676;50.848;3.272;2023-07-02T08:51:50;25.90;91.00
21035;DHT22;10676;50.848;3.272;2023-07-02T08:54:19;26.20;91.60
21035;DHT22;10676;50.848;3.272;2023-07-02T08:56:45;26.70;90.90
21035;DHT22;10676;50.848;3.272;2023-07-02T08:59:12;27.20;89.90
21035;DHT22;10676;50.848;3.272;2023-07-02T09:01:52;27.40;88.50
21035;DHT22;10676;50.848;3.272;2023-07-02T09:04:21;27.60;88.50
21035;DHT22;10676;50.848;3.272;2023-07-02T09:06:48;27.60;85.50
21035;DHT22;10676;50.848;3.272;2023-07-02T09:09:16;27.60;85.00
21035;DHT22;10676;50.848;3.272;2023-07-02T09:11:49;27.50;85.50
21035;DHT22;10676;50.848;3.272;2023-07-02T09:14:29;27.60;86.10
21035;DHT22;10676;50.848;3.272;2023-07-02T09:17:08;28.00;85.10
21035;DHT22;10676;50.848;3.272;2023-07-02T09:19:35;28.10;81.90
21035;DHT22;10676;50.848;3.272;2023-07-02T09:22:02;27.90;82.80
21035;DHT22;10676;50.848;3.272;2023-07-02T09:24:31;27.80;81.90
21035;DHT22;10676;50.848;3.272;2023-07-02T09:27:01;27.90;80.10
21035;DHT22;10676;50.848;3.272;2023-07-02T09:29:32;27.80;80.40
21035;DHT22;10676;50.848;3.272;2023-07-02T09:32:05;27.50;80.40
21035;DHT22;10676;50.848;3.272;2023-07-02T09:34:35;27.30;80.40
21035;DHT22;10676;50.848;3.272;2023-07-02T09:37:04;26.90;81.30
21035;DHT22;10676;50.848;3.272;2023-07-02T09:39:34;26.40;81.90
21035;DHT22;10676;50.848;3.272;2023-07-02T09:42:02;25.80;83.60
21035;DHT22;10676;50.848;3.272;2023-07-02T09:44:29;25.30;84.60
21035;DHT22;10676;50.848;3.272;2023-07-02T09:47:06;24.90;86.60
21035;DHT22;10676;50.848;3.272;2023-07-02T09:49:46;24.40;88.00
21035;DHT22;10676;50.848;3.272;2023-07-02T09:52:14;24.00;90.00
21035;DHT22;10676;50.848;3.272;2023-07-02T09:54:41;23.70;90.20
21035;DHT22;10676;50.848;3.272;2023-07-02T09:57:15;23.90;90.60
21035;DHT22;10676;50.848;3.272;2023-07-02T09:59:41;24.40;89.60
21035;DHT22;10676;50.848;3.272;2023-07-02T10:02:09;24.70;89.20
21035;DHT22;10676;50.848;3.272;2023-07-02T10:04:45;24.90;87.70
21035;DHT22;10676;50.848;3.272;2023-07-02T10:07:12;25.20;87.90
21035;DHT22;10676;50.848;3.272;2023-07-02T10:09:41;25.80;86.80
21035;DHT22;10676;50.848;3.272;2023-07-02T10:14:44;27.30;82.40
21035;DHT22;10676;50.848;3.272;2023-07-02T10:17:10;27.40;81.00
21035;DHT22;10676;50.848;3.272;2023-07-02T10:19:35;27.20;80.80
21035;DHT22;10676;50.848;3.272;2023-07-02T10:22:02;26.80;80.30
21035;DHT22;10676;50.848;3.272;2023-07-02T10:24:28;26.40;79.30
21035;DHT22;10676;50.848;3.272;2023-07-02T10:26:59;26.00;81.00
21035;DHT22;10676;50.848;3.272;2023-07-02T10:29:26;25.60;82.60
21035;DHT22;10676;50.848;3.272;2023-07-02T10:31:55;25.40;82.70
21035;DHT22;10676;50.848;3.272;2023-07-02T10:34:34;25.30;83.30
21035;DHT22;10676;50.848;3.272;2023-07-02T10:37:02;25.80;81.90
21035;DHT22;10676;50.848;3.272;2023-07-02T10:39:29;26.30;81.80
21035;DHT22;10676;50.848;3.272;2023-07-02T10:42:09;26.50;81.40
21035;DHT22;10676;50.848;3.272;2023-07-02T10:44:49;26.80;80.20
21035;DHT22;10676;50.848;3.272;2023-07-02T10:47:15;26.90;80.50
21035;DHT22;10676;50.848;3.272;2023-07-02T10:49:41;27.40;79.40
21035;DHT22;10676;50.848;3.272;2023-07-02T10:52:07;28.40;75.00
21035;DHT22;10676;50.848;3.272;2023-07-02T10:54:43;29.50;73.20
21035;DHT22;10676;50.848;3.272;2023-07-02T10:57:10;30.50;71.20
21035;DHT22;10676;50.848;3.272;2023-07-02T10:59:37;31.40;65.20
21035;DHT22;10676;50.848;3.272;2023-07-02T11:02:03;31.90;65.00
21035;DHT22;10676;50.848;3.272;2023-07-02T11:04:30;32.20;63.40
21035;DHT22;10676;50.848;3.272;2023-07-02T11:06:57;32.20;59.50
21035;DHT22;10676;50.848;3.272;2023-07-02T11:09:23;32.20;60.10
21035;DHT22;10676;50.848;3.272;2023-07-02T11:11:59;32.70;57.90
21035;DHT22;10676;50.848;3.272;2023-07-02T11:14:33;33.20;57.10
21035;DHT22;10676;50.848;3.272;2023-07-02T11:17:03;33.40;55.60
21035;DHT22;10676;50.848;3.272;2023-07-02T11:19:31;33.90;53.80
21035;DHT22;10676;50.848;3.272;2023-07-02T11:21:58;34.10;51.70
21035;DHT22;10676;50.848;3.272;2023-07-02T11:24:42;33.70;51.10
21035;DHT22;10676;50.848;3.272;2023-07-02T11:27:07;33.10;51.80
21035;DHT22;10676;50.848;3.272;2023-07-02T11:29:38;32.10;53.70
21035;DHT22;10676;50.848;3.272;2023-07-02T11:32:11;31.30;54.80
21035;DHT22;10676;50.848;3.272;2023-07-02T11:34:52;30.80;55.60
21035;DHT22;10676;50.848;3.272;2023-07-02T11:37:18;30.30;56.30
21035;DHT22;10676;50.848;3.272;2023-07-02T11:39:44;29.70;56.80
21035;DHT22;10676;50.848;3.272;2023-07-02T11:42:09;29.50;57.60
21035;DHT22;10676;50.848;3.272;2023-07-02T11:44:36;29.50;57.70
21035;DHT22;10676;50.848;3.272;2023-07-02T11:47:02;29.70;57.50
21035;DHT22;10676;50.848;3.272;2023-07-02T11:49:34;29.80;58.00
21035;DHT22;10676;50.848;3.272;2023-07-02T11:52:00;29.80;56.60
21035;DHT22;10676;50.848;3.272;2023-07-02T11:54:25;29.70;56.80
21035;DHT22;10676;50.848;3.272;2023-07-02T11:56:51;29.80;57.10
21035;DHT22;10676;50.848;3.272;2023-07-02T11:59:17;30.10;55.70
21035;DHT22;10676;50.848;3.272;2023-07-02T12:01:43;30.30;56.10
21035;DHT22;10676;50.848;3.272;2023-07-02T12:04:10;30.10;55.40
21035;DHT22;10676;50.848;3.272;2023-07-02T12:06:37;29.70;55.80
21035;DHT22;10676;50.848;3.272;2023-07-02T12:09:03;29.50;56.60
21035;DHT22;10676;50.848;3.272;2023-07-02T12:11:28;29.70;56.70
21035;DHT22;10676;50.848;3.272;2023-07-02T12:13:56;30.20;55.10
21035;DHT22;10676;50.848;3.272;2023-07-02T12:16:22;30.10;55.50
21035;DHT22;10676;50.848;3.272;2023-07-02T12:18:48;29.70;55.20
21035;DHT22;10676;50.848;3.272;2023-07-02T12:21:13;29.30;55.60
21035;DHT22;10676;50.848;3.272;2023-07-02T12:23:40;28.90;56.80
21035;DHT22;10676;50.848;3.272;2023-07-02T12:26:06;28.60;57.50
21035;DHT22;10676;50.848;3.272;2023-07-02T12:28:33;28.20;58.30
21035;DHT22;10676;50.848;3.272;2023-07-02T12:30:59;27.90;60.30
21035;DHT22;10676;50.848;3.272;2023-07-02T12:33:25;28.00;59.00
21035;DHT22;10676;50.848;3.272;2023-07-02T12:35:51;28.20;58.60
21035;DHT22;10676;50.848;3.272;2023-07-02T12:38:17;28.50;58.70
21035;DHT22;10676;50.848;3.272;2023-07-02T12:40:43;28.70;58.90
21035;DHT22;10676;50.848;3.272;2023-07-02T12:43:08;29.10;57.20
21035;DHT22;10676;50.848;3.272;2023-07-02T12:45:34;29.30;56.10
21035;DHT22;10676;50.848;3.272;2023-07-02T12:48:00;29.40;56.10
21035;DHT22;10676;50.848;3.272;2023-07-02T12:50:26;29.30;56.90
21035;DHT22;10676;50.848;3.272;2023-07-02T12:52:51;29.40;56.00
21035;DHT22;10676;50.848;3.272;2023-07-02T12:55:22;29.20;55.60
21035;DHT22;10676;50.848;3.272;2023-07-02T12:57:48;28.80;56.30
21035;DHT22;10676;50.848;3.272;2023-07-02T13:00:14;28.50;57.50
21035;DHT22;10676;50.848;3.272;2023-07-02T13:02:39;28.40;56.70
21035;DHT22;10676;50.848;3.272;2023-07-02T13:05:09;28.20;56.40
21035;DHT22;10676;50.848;3.272;2023-07-02T13:07:34;27.90;58.10
21035;DHT22;10676;50.848;3.272;2023-07-02T13:10:00;27.50;59.10
21035;DHT22;10676;50.848;3.272;2023-07-02T13:12:26;27.30;60.00
21035;DHT22;10676;50.848;3.272;2023-07-02T13:14:51;27.40;58.90
21035;DHT22;10676;50.848;3.272;2023-07-02T13:17:17;27.60;59.20
21035;DHT22;10676;50.848;3.272;2023-07-02T13:19:43;27.70;58.90
21035;DHT22;10676;50.848;3.272;2023-07-02T13:22:10;27.80;59.30
21035;DHT22;10676;50.848;3.272;2023-07-02T13:24:36;27.90;59.90
21035;DHT22;10676;50.848;3.272;2023-07-02T13:27:11;27.80;59.80
21035;DHT22;10676;50.848;3.272;2023-07-02T13:29:38;27.60;60.70
21035;DHT22;10676;50.848;3.272;2023-07-02T13:32:06;27.40;61.60
21035;DHT22;10676;50.848;3.272;2023-07-02T13:34:32;27.50;61.20
21035;DHT22;10676;50.848;3.272;2023-07-02T13:36:57;27.70;58.90
21035;DHT22;10676;50.848;3.272;2023-07-02T13:39:23;27.80;59.30
21035;DHT22;10676;50.848;3.272;2023-07-02T13:41:50;27.60;59.60
21035;DHT22;10676;50.848;3.272;2023-07-02T13:44:16;27.50;59.60
21035;DHT22;10676;50.848;3.272;2023-07-02T13:46:43;27.50;60.80
21035;DHT22;10676;50.848;3.272;2023-07-02T13:49:09;27.40;61.20
21035;DHT22;10676;50.848;3.272;2023-07-02T13:51:36;27.20;61.60
21035;DHT22;10676;50.848;3.272;2023-07-02T13:54:02;27.10;61.80
21035;DHT22;10676;50.848;3.272;2023-07-02T13:56:28;27.10;61.40
21035;DHT22;10676;50.848;3.272;2023-07-02T13:59:14;27.20;60.40
21035;DHT22;10676;50.848;3.272;2023-07-02T14:01:40;27.40;60.30
21035;DHT22;10676;50.848;3.272;2023-07-02T14:04:06;27.50;60.10
21035;DHT22;10676;50.848;3.272;2023-07-02T14:06:32;27.60;58.90
21035;DHT22;10676;50.848;3.272;2023-07-02T14:08:57;27.60;59.50
21035;DHT22;10676;50.848;3.272;2023-07-02T14:11:25;27.60;60.50
21035;DHT22;10676;50.848;3.272;2023-07-02T14:13:50;27.50;60.90
21035;DHT22;10676;50.848;3.272;2023-07-02T14:16:17;27.60;60.50
21035;DHT22;10676;50.848;3.272;2023-07-02T14:18:43;27.70;59.80
21035;DHT22;10676;50.848;3.272;2023-07-02T14:21:09;27.80;60.10
21035;DHT22;10676;50.848;3.272;2023-07-02T14:23:34;27.60;60.20
21035;DHT22;10676;50.848;3.272;2023-07-02T14:26:00;27.30;60.70
21035;DHT22;10676;50.848;3.272;2023-07-02T14:28:26;26.90;62.00
21035;DHT22;10676;50.848;3.272;2023-07-02T14:30:59;26.40;63.00
21035;DHT22;10676;50.848;3.272;2023-07-02T14:33:26;26.20;63.80
21035;DHT22;10676;50.848;3.272;2023-07-02T14:35:51;26.10;64.10
21035;DHT22;10676;50.848;3.272;2023-07-02T14:38:17;26.10;63.50
21035;DHT22;10676;50.848;3.272;2023-07-02T14:40:53;25.90;63.20
21035;DHT22;10676;50.848;3.272;2023-07-02T14:43:20;25.80;63.90
21035;DHT22;10676;50.848;3.272;2023-07-02T14:45:49;25.40;64.10
21035;DHT22;10676;50.848;3.272;2023-07-02T14:48:17;25.20;65.50
21035;DHT22;10676;50.848;3.272;2023-07-02T14:50:55;25.10;66.20
21035;DHT22;10676;50.848;3.272;2023-07-02T14:53:22;25.20;66.40
21035;DHT22;10676;50.848;3.272;2023-07-02T14:55:48;25.40;66.00
21035;DHT22;10676;50.848;3.272;2023-07-02T14:58:17;25.60;65.70
21035;DHT22;10676;50.848;3.272;2023-07-02T15:00:52;25.90;65.40
21035;DHT22;10676;50.848;3.272;2023-07-02T15:03:20;26.00;64.30
21035;DHT22;10676;50.848;3.272;2023-07-02T15:05:48;26.10;63.60
21035;DHT22;10676;50.848;3.272;2023-07-02T15:08:14;26.20;64.60
21035;DHT22;10676;50.848;3.272;2023-07-02T15:10:47;26.40;63.70
21035;DHT22;10676;50.848;3.272;2023-07-02T15:13:13;26.40;63.80
21035;DHT22;10676;50.848;3.272;2023-07-02T15:15:39;26.40;64.30
21035;DHT22;10676;50.848;3.272;2023-07-02T15:18:06;26.30;64.90
21035;DHT22;10676;50.848;3.272;2023-07-02T15:20:33;26.20;64.60
21035;DHT22;10676;50.848;3.272;2023-07-02T15:22:59;26.20;65.10
21035;DHT22;10676;50.848;3.272;2023-07-02T15:25:25;26.30;63.50
21035;DHT22;10676;50.848;3.272;2023-07-02T15:27:51;26.20;63.30
21035;DHT22;10676;50.848;3.272;2023-07-02T15:30:17;26.00;64.00
21035;DHT22;10676;50.848;3.272;2023-07-02T15:32:43;25.90;64.30
21035;DHT22;10676;50.848;3.272;2023-07-02T15:35:10;25.70;64.90